sensor_id;sensor_type;location;lat;lon;timestamp;P1;durP1;ratioP1;P2;durP2;ratioP2
22622;SDS011;11478;51.094;7.030;2022-09-17T00:01:46;9.53;;;2.00;;
22622;SDS011;11478;51.094;7.030;2022-09-17T00:04:18;10.02;;;1.90;;
22622;SDS011;11478;51.094;7.030;2022-09-17T00:06:44;6.78;;;1.80;;
22622;SDS011;11478;51.094;7.030;2022-09-17T00:09:12;8.00;;;1.77;;
22622;SDS011;11478;51.094;7.030;2022-09-17T00:11:40;8.32;;;2.15;;
22622;SDS011;11478;51.094;7.030;2022-09-17T00:16:42;10.88;;;2.40;;
22622;SDS011;11478;51.094;7.030;2022-09-17T00:19:21;5.90;;;1.88;;
22622;SDS011;11478;51.094;7.030;2022-09-17T00:21:50;11.98;;;2.40;;
22622;SDS011;11478;51.094;7.030;2022-09-17T00:24:23;7.93;;;1.90;;
22622;SDS011;11478;51.094;7.030;2022-09-17T00:26:55;12.27;;;2.30;;
22622;SDS011;11478;51.094;7.030;2022-09-17T00:29:24;10.35;;;2.30;;
22622;SDS011;11478;51.094;7.030;2022-09-17T00:31:49;10.05;;;2.30;;
22622;SDS011;11478;51.094;7.030;2022-09-17T00:34:20;12.43;;;2.38;;
22622;SDS011;11478;51.094;7.030;2022-09-17T00:36:46;11.05;;;2.28;;
22622;SDS011;11478;51.094;7.030;2022-09-17T00:39:12;7.35;;;2.63;;
22622;SDS011;11478;51.094;7.030;2022-09-17T00:41:39;11.80;;;2.80;;
22622;SDS011;11478;51.094;7.030;2022-09-17T00:47:37;10.57;;;3.10;;
22622;SDS011;11478;51.094;7.030;2022-09-17T00:50:14;16.25;;;3.60;;
22622;SDS011;11478;51.094;7.030;2022-09-17T00:52:58;11.05;;;3.67;;
22622;SDS011;11478;51.094;7.030;2022-09-17T00:58:05;11.60;;;2.75;;
22622;SDS011;11478;51.094;7.030;2022-09-17T01:00:32;10.52;;;3.13;;
22622;SDS011;11478;51.094;7.030;2022-09-17T01:02:59;11.23;;;3.25;;
22622;SDS011;11478;51.094;7.030;2022-09-17T01:05:36;11.32;;;3.22;;
22622;SDS011;11478;51.094;7.030;2022-09-17T01:08:50;12.88;;;3.72;;
22622;SDS011;11478;51.094;7.030;2022-09-17T01:25:22;21.73;;;4.43;;
22622;SDS011;11478;51.094;7.030;2022-09-17T01:31:06;17.00;;;5.10;;
22622;SDS011;11478;51.094;7.030;2022-09-17T01:34:19;18.33;;;5.85;;
22622;SDS011;11478;51.094;7.030;2022-09-17T01:37:02;16.93;;;5.23;;
22622;SDS011;11478;51.094;7.030;2022-09-17T01:47:36;14.98;;;6.78;;
22622;SDS011;11478;51.094;7.030;2022-09-17T01:50:11;16.15;;;7.25;;
22622;SDS011;11478;51.094;7.030;2022-09-17T01:52:43;17.05;;;8.00;;
22622;SDS011;11478;51.094;7.030;2022-09-17T01:55:13;17.42;;;7.57;;
22622;SDS011;11478;51.094;7.030;2022-09-17T01:57:56;19.58;;;7.80;;
22622;SDS011;11478;51.094;7.030;2022-09-17T02:00:27;21.75;;;8.63;;
22622;SDS011;11478;51.094;7.030;2022-09-17T02:02:59;19.33;;;8.63;;
22622;SDS011;11478;51.094;7.030;2022-09-17T02:05:39;17.30;;;8.05;;
22622;SDS011;11478;51.094;7.030;2022-09-17T02:08:23;17.92;;;7.75;;
22622;SDS011;11478;51.094;7.030;2022-09-17T02:10:58;18.10;;;7.53;;
22622;SDS011;11478;51.094;7.030;2022-09-17T02:13:53;16.80;;;6.97;;
22622;SDS011;11478;51.094;7.030;2022-09-17T02:19:01;16.30;;;6.28;;
22622;SDS011;11478;51.094;7.030;2022-09-17T02:21:50;23.93;;;6.00;;
22622;SDS011;11478;51.094;7.030;2022-09-17T02:28:01;17.73;;;6.40;;
22622;SDS011;11478;51.094;7.030;2022-09-17T02:30:27;14.20;;;5.65;;
22622;SDS011;11478;51.094;7.030;2022-09-17T02:35:29;19.33;;;5.80;;
22622;SDS011;11478;51.094;7.030;2022-09-17T02:38:03;12.32;;;4.95;;
22622;SDS011;11478;51.094;7.030;2022-09-17T02:40:30;19.30;;;5.35;;
22622;SDS011;11478;51.094;7.030;2022-09-17T02:55:21;18.27;;;4.20;;
22622;SDS011;11478;51.094;7.030;2022-09-17T02:58:04;18.48;;;4.15;;
22622;SDS011;11478;51.094;7.030;2022-09-17T03:00:42;15.73;;;4.20;;
22622;SDS011;11478;51.094;7.030;2022-09-17T03:05:38;12.15;;;3.70;;
22622;SDS011;11478;51.094;7.030;2022-09-17T03:08:12;17.80;;;4.50;;
22622;SDS011;11478;51.094;7.030;2022-09-17T03:10:40;18.83;;;3.88;;
22622;SDS011;11478;51.094;7.030;2022-09-17T03:13:09;16.88;;;3.70;;
22622;SDS011;11478;51.094;7.030;2022-09-17T03:15:35;13.82;;;3.72;;
22622;SDS011;11478;51.094;7.030;2022-09-17T03:18:01;15.48;;;4.05;;
22622;SDS011;11478;51.094;7.030;2022-09-17T03:20:27;12.15;;;4.05;;
22622;SDS011;11478;51.094;7.030;2022-09-17T03:22:53;13.82;;;3.72;;
22622;SDS011;11478;51.094;7.030;2022-09-17T03:25:21;15.45;;;4.40;;
22622;SDS011;11478;51.094;7.030;2022-09-17T03:27:48;18.60;;;3.90;;
22622;SDS011;11478;51.094;7.030;2022-09-17T03:30:13;11.27;;;3.28;;
22622;SDS011;11478;51.094;7.030;2022-09-17T03:32:41;19.83;;;4.03;;
22622;SDS011;11478;51.094;7.030;2022-09-17T03:35:07;12.82;;;3.42;;
22622;SDS011;11478;51.094;7.030;2022-09-17T03:37:44;15.35;;;3.42;;
22622;SDS011;11478;51.094;7.030;2022-09-17T03:40:11;13.45;;;3.35;;
22622;SDS011;11478;51.094;7.030;2022-09-17T03:42:42;20.85;;;3.90;;
22622;SDS011;11478;51.094;7.030;2022-09-17T03:45:08;12.98;;;3.22;;
22622;SDS011;11478;51.094;7.030;2022-09-17T03:47:40;13.40;;;3.38;;
22622;SDS011;11478;51.094;7.030;2022-09-17T03:50:06;15.25;;;3.30;;
22622;SDS011;11478;51.094;7.030;2022-09-17T03:52:32;13.20;;;3.17;;
22622;SDS011;11478;51.094;7.030;2022-09-17T03:54:58;12.63;;;3.20;;
22622;SDS011;11478;51.094;7.030;2022-09-17T03:57:28;16.45;;;3.38;;
22622;SDS011;11478;51.094;7.030;2022-09-17T03:59:53;19.75;;;3.60;;
22622;SDS011;11478;51.094;7.030;2022-09-17T04:02:30;12.82;;;3.00;;
22622;SDS011;11478;51.094;7.030;2022-09-17T04:04:56;9.18;;;2.70;;
22622;SDS011;11478;51.094;7.030;2022-09-17T04:07:24;13.85;;;3.05;;
22622;SDS011;11478;51.094;7.030;2022-09-17T04:09:50;16.13;;;2.88;;
22622;SDS011;11478;51.094;7.030;2022-09-17T04:12:20;15.63;;;2.97;;
22622;SDS011;11478;51.094;7.030;2022-09-17T04:14:48;18.48;;;3.00;;
22622;SDS011;11478;51.094;7.030;2022-09-17T04:17:15;15.10;;;2.90;;
22622;SDS011;11478;51.094;7.030;2022-09-17T04:19:42;11.40;;;2.15;;
22622;SDS011;11478;51.094;7.030;2022-09-17T04:22:13;12.15;;;2.60;;
22622;SDS011;11478;51.094;7.030;2022-09-17T04:24:39;18.30;;;2.70;;
22622;SDS011;11478;51.094;7.030;2022-09-17T04:27:05;19.75;;;3.90;;
22622;SDS011;11478;51.094;7.030;2022-09-17T04:29:31;12.95;;;2.72;;
22622;SDS011;11478;51.094;7.030;2022-09-17T04:34:27;14.48;;;2.70;;
22622;SDS011;11478;51.094;7.030;2022-09-17T04:36:53;13.65;;;2.90;;
22622;SDS011;11478;51.094;7.030;2022-09-17T04:39:19;11.90;;;2.28;;
22622;SDS011;11478;51.094;7.030;2022-09-17T04:41:45;10.57;;;2.83;;
22622;SDS011;11478;51.094;7.030;2022-09-17T04:44:11;15.40;;;2.60;;
22622;SDS011;11478;51.094;7.030;2022-09-17T04:46:38;14.27;;;3.17;;
22622;SDS011;11478;51.094;7.030;2022-09-17T04:49:03;15.88;;;2.30;;
22622;SDS011;11478;51.094;7.030;2022-09-17T04:51:38;16.73;;;2.35;;
22622;SDS011;11478;51.094;7.030;2022-09-17T04:54:06;19.38;;;2.72;;
22622;SDS011;11478;51.094;7.030;2022-09-17T04:56:32;13.27;;;2.58;;
22622;SDS011;11478;51.094;7.030;2022-09-17T04:59:12;14.32;;;2.50;;
22622;SDS011;11478;51.094;7.030;2022-09-17T05:01:38;13.63;;;2.50;;
22622;SDS011;11478;51.094;7.030;2022-09-17T05:04:04;10.90;;;2.30;;
22622;SDS011;11478;51.094;7.030;2022-09-17T05:06:29;16.27;;;3.40;;
22622;SDS011;11478;51.094;7.030;2022-09-17T05:08:56;22.05;;;3.10;;
22622;SDS011;11478;51.094;7.030;2022-09-17T05:11:24;15.20;;;2.70;;
22622;SDS011;11478;51.094;7.030;2022-09-17T05:13:50;15.50;;;2.42;;
22622;SDS011;11478;51.094;7.030;2022-09-17T05:16:16;8.65;;;2.22;;
22622;SDS011;11478;51.094;7.030;2022-09-17T05:21:13;11.50;;;2.40;;
22622;SDS011;11478;51.094;7.030;2022-09-17T05:23:39;12.25;;;2.15;;
22622;SDS011;11478;51.094;7.030;2022-09-17T05:26:05;13.82;;;2.83;;
22622;SDS011;11478;51.094;7.030;2022-09-17T05:28:30;12.88;;;2.25;;
22622;SDS011;11478;51.094;7.030;2022-09-17T05:30:59;14.48;;;2.63;;
22622;SDS011;11478;51.094;7.030;2022-09-17T05:36:13;12.27;;;2.10;;
22622;SDS011;11478;51.094;7.030;2022-09-17T05:38:39;13.43;;;2.70;;
22622;SDS011;11478;51.094;7.030;2022-09-17T05:41:05;11.20;;;2.42;;
22622;SDS011;11478;51.094;7.030;2022-09-17T05:43:35;13.18;;;2.55;;
22622;SDS011;11478;51.094;7.030;2022-09-17T05:46:01;17.27;;;2.55;;
22622;SDS011;11478;51.094;7.030;2022-09-17T05:48:32;12.77;;;2.38;;
22622;SDS011;11478;51.094;7.030;2022-09-17T05:51:04;17.88;;;3.35;;
22622;SDS011;11478;51.094;7.030;2022-09-17T05:53:29;13.35;;;2.50;;
22622;SDS011;11478;51.094;7.030;2022-09-17T05:56:00;15.60;;;2.70;;
22622;SDS011;11478;51.094;7.030;2022-09-17T05:58:29;15.00;;;3.10;;
22622;SDS011;11478;51.094;7.030;2022-09-17T06:00:59;9.07;;;2.03;;
22622;SDS011;11478;51.094;7.030;2022-09-17T06:03:25;14.02;;;2.20;;
22622;SDS011;11478;51.094;7.030;2022-09-17T06:05:56;15.57;;;2.10;;
22622;SDS011;11478;51.094;7.030;2022-09-17T06:08:39;17.15;;;3.00;;
22622;SDS011;11478;51.094;7.030;2022-09-17T06:11:12;16.75;;;2.25;;
22622;SDS011;11478;51.094;7.030;2022-09-17T06:13:38;13.60;;;2.30;;
22622;SDS011;11478;51.094;7.030;2022-09-17T06:16:06;12.20;;;2.25;;
22622;SDS011;11478;51.094;7.030;2022-09-17T06:18:32;17.50;;;2.72;;
22622;SDS011;11478;51.094;7.030;2022-09-17T06:21:03;15.63;;;2.63;;
22622;SDS011;11478;51.094;7.030;2022-09-17T06:23:33;11.70;;;2.30;;
22622;SDS011;11478;51.094;7.030;2022-09-17T06:26:04;19.38;;;2.38;;
22622;SDS011;11478;51.094;7.030;2022-09-17T06:28:30;16.33;;;2.53;;
22622;SDS011;11478;51.094;7.030;2022-09-17T06:31:03;14.75;;;2.58;;
22622;SDS011;11478;51.094;7.030;2022-09-17T06:33:31;14.60;;;2.50;;
22622;SDS011;11478;51.094;7.030;2022-09-17T06:35:59;16.50;;;2.78;;
22622;SDS011;11478;51.094;7.030;2022-09-17T06:38:31;16.97;;;2.40;;
22622;SDS011;11478;51.094;7.030;2022-09-17T06:41:00;10.80;;;2.20;;
22622;SDS011;11478;51.094;7.030;2022-09-17T06:43:26;15.32;;;2.42;;
22622;SDS011;11478;51.094;7.030;2022-09-17T06:46:04;11.32;;;1.95;;
22622;SDS011;11478;51.094;7.030;2022-09-17T06:48:33;15.30;;;2.50;;
22622;SDS011;11478;51.094;7.030;2022-09-17T06:51:14;13.95;;;2.22;;
22622;SDS011;11478;51.094;7.030;2022-09-17T06:53:40;15.45;;;2.50;;
22622;SDS011;11478;51.094;7.030;2022-09-17T06:56:06;11.45;;;2.35;;
22622;SDS011;11478;51.094;7.030;2022-09-17T06:58:35;14.85;;;2.40;;
22622;SDS011;11478;51.094;7.030;2022-09-17T07:01:06;11.27;;;2.25;;
22622;SDS011;11478;51.094;7.030;2022-09-17T07:03:32;11.68;;;2.15;;
22622;SDS011;11478;51.094;7.030;2022-09-17T07:05:58;17.40;;;1.92;;
22622;SDS011;11478;51.094;7.030;2022-09-17T07:08:28;13.18;;;2.60;;
22622;SDS011;11478;51.094;7.030;2022-09-17T07:13:24;15.15;;;2.78;;
22622;SDS011;11478;51.094;7.030;2022-09-17T07:15:51;13.40;;;2.28;;
22622;SDS011;11478;51.094;7.030;2022-09-17T07:18:24;14.40;;;2.25;;
22622;SDS011;11478;51.094;7.030;2022-09-17T07:20:54;10.25;;;1.90;;
22622;SDS011;11478;51.094;7.030;2022-09-17T07:23:28;18.33;;;2.10;;
22622;SDS011;11478;51.094;7.030;2022-09-17T07:25:59;14.90;;;2.95;;
22622;SDS011;11478;51.094;7.030;2022-09-17T07:28:28;13.90;;;2.45;;
22622;SDS011;11478;51.094;7.030;2022-09-17T07:30:54;14.80;;;2.30;;
22622;SDS011;11478;51.094;7.030;2022-09-17T07:33:23;12.32;;;2.20;;
22622;SDS011;11478;51.094;7.030;2022-09-17T07:36:00;11.90;;;2.13;;
22622;SDS011;11478;51.094;7.030;2022-09-17T07:38:31;12.10;;;2.45;;
22622;SDS011;11478;51.094;7.030;2022-09-17T07:41:02;18.30;;;2.72;;
22622;SDS011;11478;51.094;7.030;2022-09-17T07:43:31;13.05;;;2.40;;
22622;SDS011;11478;51.094;7.030;2022-09-17T07:45:58;15.13;;;2.53;;
22622;SDS011;11478;51.094;7.030;2022-09-17T07:48:26;14.75;;;2.80;;
22622;SDS011;11478;51.094;7.030;2022-09-17T07:50:53;13.77;;;2.13;;
22622;SDS011;11478;51.094;7.030;2022-09-17T07:53:19;16.55;;;2.85;;
22622;SDS011;11478;51.094;7.030;2022-09-17T07:55:56;13.32;;;2.45;;
22622;SDS011;11478;51.094;7.030;2022-09-17T07:58:30;17.00;;;2.50;;
22622;SDS011;11478;51.094;7.030;2022-09-17T08:00:59;12.32;;;2.15;;
22622;SDS011;11478;51.094;7.030;2022-09-17T08:03:33;17.63;;;2.53;;
22622;SDS011;11478;51.094;7.030;2022-09-17T08:06:07;13.40;;;2.40;;
22622;SDS011;11478;51.094;7.030;2022-09-17T08:08:40;14.23;;;2.50;;
22622;SDS011;11478;51.094;7.030;2022-09-17T08:11:07;12.10;;;1.88;;
22622;SDS011;11478;51.094;7.030;2022-09-17T08:13:35;12.43;;;2.20;;
22622;SDS011;11478;51.094;7.030;2022-09-17T08:16:04;12.60;;;2.00;;
22622;SDS011;11478;51.094;7.030;2022-09-17T08:18:34;10.87;;;2.03;;
22622;SDS011;11478;51.094;7.030;2022-09-17T08:21:03;12.77;;;2.08;;
22622;SDS011;11478;51.094;7.030;2022-09-17T08:23:32;9.88;;;2.00;;
22622;SDS011;11478;51.094;7.030;2022-09-17T08:26:00;10.13;;;2.28;;
22622;SDS011;11478;51.094;7.030;2022-09-17T08:28:29;13.20;;;2.05;;
22622;SDS011;11478;51.094;7.030;2022-09-17T08:31:01;15.88;;;1.98;;
22622;SDS011;11478;51.094;7.030;2022-09-17T08:33:30;8.63;;;1.92;;
22622;SDS011;11478;51.094;7.030;2022-09-17T08:36:09;11.55;;;1.70;;
22622;SDS011;11478;51.094;7.030;2022-09-17T08:38:36;10.82;;;2.05;;
22622;SDS011;11478;51.094;7.030;2022-09-17T08:46:20;13.15;;;2.10;;
22622;SDS011;11478;51.094;7.030;2022-09-17T08:51:43;10.40;;;1.45;;
22622;SDS011;11478;51.094;7.030;2022-09-17T08:54:22;12.13;;;2.20;;
22622;SDS011;11478;51.094;7.030;2022-09-17T09:00:03;10.75;;;1.70;;
22622;SDS011;11478;51.094;7.030;2022-09-17T09:08:25;8.18;;;1.95;;
22622;SDS011;11478;51.094;7.030;2022-09-17T09:11:05;8.93;;;1.50;;
22622;SDS011;11478;51.094;7.030;2022-09-17T09:13:52;10.85;;;1.83;;
22622;SDS011;11478;51.094;7.030;2022-09-17T09:16:27;8.75;;;1.50;;
22622;SDS011;11478;51.094;7.030;2022-09-17T09:19:03;7.93;;;1.88;;
22622;SDS011;11478;51.094;7.030;2022-09-17T09:22:04;10.30;;;2.00;;
22622;SDS011;11478;51.094;7.030;2022-09-17T09:24:55;9.55;;;1.48;;
22622;SDS011;11478;51.094;7.030;2022-09-17T09:30:44;9.98;;;1.88;;
22622;SDS011;11478;51.094;7.030;2022-09-17T09:33:13;5.47;;;1.38;;
22622;SDS011;11478;51.094;7.030;2022-09-17T09:35:42;7.82;;;1.85;;
22622;SDS011;11478;51.094;7.030;2022-09-17T09:46:15;6.72;;;1.30;;
22622;SDS011;11478;51.094;7.030;2022-09-17T09:48:48;8.77;;;1.45;;
22622;SDS011;11478;51.094;7.030;2022-09-17T09:57:15;10.77;;;1.60;;
22622;SDS011;11478;51.094;7.030;2022-09-17T09:59:45;8.25;;;1.40;;
22622;SDS011;11478;51.094;7.030;2022-09-17T10:02:11;7.95;;;1.92;;
22622;SDS011;11478;51.094;7.030;2022-09-17T10:04:40;6.68;;;1.50;;
22622;SDS011;11478;51.094;7.030;2022-09-17T10:07:06;7.68;;;1.60;;
22622;SDS011;11478;51.094;7.030;2022-09-17T10:09:44;7.53;;;1.27;;
22622;SDS011;11478;51.094;7.030;2022-09-17T10:12:14;8.90;;;1.58;;
22622;SDS011;11478;51.094;7.030;2022-09-17T10:14:52;10.18;;;1.70;;
22622;SDS011;11478;51.094;7.030;2022-09-17T10:17:44;6.15;;;1.20;;
22622;SDS011;11478;51.094;7.030;2022-09-17T10:22:59;9.02;;;1.60;;
22622;SDS011;11478;51.094;7.030;2022-09-17T10:25:33;9.98;;;1.48;;
22622;SDS011;11478;51.094;7.030;2022-09-17T10:31:01;9.40;;;1.50;;
22622;SDS011;11478;51.094;7.030;2022-09-17T10:33:39;9.55;;;1.77;;
22622;SDS011;11478;51.094;7.030;2022-09-17T10:36:36;10.93;;;1.42;;
22622;SDS011;11478;51.094;7.030;2022-09-17T10:39:34;11.50;;;1.50;;
22622;SDS011;11478;51.094;7.030;2022-09-17T10:42:12;7.60;;;1.85;;
22622;SDS011;11478;51.094;7.030;2022-09-17T10:44:52;6.00;;;1.20;;
22622;SDS011;11478;51.094;7.030;2022-09-17T10:47:30;9.48;;;1.65;;
22622;SDS011;11478;51.094;7.030;2022-09-17T10:50:06;5.47;;;1.23;;
22622;SDS011;11478;51.094;7.030;2022-09-17T10:52:49;11.18;;;1.40;;
22622;SDS011;11478;51.094;7.030;2022-09-17T10:58:02;7.03;;;1.45;;
22622;SDS011;11478;51.094;7.030;2022-09-17T11:04:19;8.00;;;1.60;;
22622;SDS011;11478;51.094;7.030;2022-09-17T11:17:34;7.50;;;1.17;;
22622;SDS011;11478;51.094;7.030;2022-09-17T11:39:27;4.32;;;1.15;;
22622;SDS011;11478;51.094;7.030;2022-09-17T11:41:56;4.38;;;1.17;;
22622;SDS011;11478;51.094;7.030;2022-09-17T11:44:28;5.45;;;1.20;;
22622;SDS011;11478;51.094;7.030;2022-09-17T11:49:44;7.43;;;1.25;;
22622;SDS011;11478;51.094;7.030;2022-09-17T11:52:19;8.43;;;1.52;;
22622;SDS011;11478;51.094;7.030;2022-09-17T11:58:01;6.22;;;1.00;;
22622;SDS011;11478;51.094;7.030;2022-09-17T12:00:45;3.58;;;0.93;;
22622;SDS011;11478;51.094;7.030;2022-09-17T12:03:25;3.75;;;1.00;;
22622;SDS011;11478;51.094;7.030;2022-09-17T12:05:58;3.15;;;0.85;;
22622;SDS011;11478;51.094;7.030;2022-09-17T12:17:35;4.45;;;0.90;;
22622;SDS011;11478;51.094;7.030;2022-09-17T12:20:34;5.93;;;1.27;;
22622;SDS011;11478;51.094;7.030;2022-09-17T12:23:04;6.00;;;1.42;;
22622;SDS011;11478;51.094;7.030;2022-09-17T12:29:15;6.10;;;0.85;;
22622;SDS011;11478;51.094;7.030;2022-09-17T12:44:05;2.42;;;0.88;;
22622;SDS011;11478;51.094;7.030;2022-09-17T12:49:27;2.58;;;0.90;;
22622;SDS011;11478;51.094;7.030;2022-09-17T12:58:22;4.40;;;0.90;;
22622;SDS011;11478;51.094;7.030;2022-09-17T13:01:06;9.48;;;3.60;;
22622;SDS011;11478;51.094;7.030;2022-09-17T13:03:53;9.68;;;1.60;;
22622;SDS011;11478;51.094;7.030;2022-09-17T13:12:08;2.75;;;1.20;;
22622;SDS011;11478;51.094;7.030;2022-09-17T13:20:42;4.53;;;1.38;;
22622;SDS011;11478;51.094;7.030;2022-09-17T13:25:25;6.25;;;1.17;;
22622;SDS011;11478;51.094;7.030;2022-09-17T13:39:04;3.15;;;1.00;;
22622;SDS011;11478;51.094;7.030;2022-09-17T13:41:32;4.22;;;1.15;;
22622;SDS011;11478;51.094;7.030;2022-09-17T13:44:01;4.05;;;0.88;;
22622;SDS011;11478;51.094;7.030;2022-09-17T13:46:29;4.13;;;0.80;;
22622;SDS011;11478;51.094;7.030;2022-09-17T13:48:58;3.35;;;1.25;;
22622;SDS011;11478;51.094;7.030;2022-09-17T13:54:01;10.43;;;1.63;;
22622;SDS011;11478;51.094;7.030;2022-09-17T13:56:32;6.25;;;1.42;;
22622;SDS011;11478;51.094;7.030;2022-09-17T13:59:17;3.33;;;1.27;;
22622;SDS011;11478;51.094;7.030;2022-09-17T14:02:02;8.40;;;1.40;;
22622;SDS011;11478;51.094;7.030;2022-09-17T14:07:49;3.25;;;1.10;;
22622;SDS011;11478;51.094;7.030;2022-09-17T14:21:17;4.88;;;1.50;;
22622;SDS011;11478;51.094;7.030;2022-09-17T14:23:55;4.22;;;1.00;;
22622;SDS011;11478;51.094;7.030;2022-09-17T14:31:49;5.10;;;1.10;;
22622;SDS011;11478;51.094;7.030;2022-09-17T14:34:18;2.83;;;0.80;;
22622;SDS011;11478;51.094;7.030;2022-09-17T14:36:49;4.47;;;0.90;;
22622;SDS011;11478;51.094;7.030;2022-09-17T14:39:26;3.50;;;0.90;;
22622;SDS011;11478;51.094;7.030;2022-09-17T14:42:08;4.43;;;1.10;;
22622;SDS011;11478;51.094;7.030;2022-09-17T14:44:56;7.47;;;0.93;;
22622;SDS011;11478;51.094;7.030;2022-09-17T14:47:32;4.10;;;0.80;;
22622;SDS011;11478;51.094;7.030;2022-09-17T14:53:06;4.25;;;1.33;;
22622;SDS011;11478;51.094;7.030;2022-09-17T14:55:42;5.57;;;1.10;;
22622;SDS011;11478;51.094;7.030;2022-09-17T14:58:28;5.43;;;1.25;;
22622;SDS011;11478;51.094;7.030;2022-09-17T15:03:45;8.55;;;2.15;;
22622;SDS011;11478;51.094;7.030;2022-09-17T15:06:29;7.28;;;1.73;;
22622;SDS011;11478;51.094;7.030;2022-09-17T15:08:56;6.30;;;1.80;;
22622;SDS011;11478;51.094;7.030;2022-09-17T15:11:35;6.22;;;1.70;;
22622;SDS011;11478;51.094;7.030;2022-09-17T15:14:06;9.25;;;1.80;;
22622;SDS011;11478;51.094;7.030;2022-09-17T15:16:47;7.50;;;1.60;;
22622;SDS011;11478;51.094;7.030;2022-09-17T15:19:36;4.70;;;1.63;;
22622;SDS011;11478;51.094;7.030;2022-09-17T15:22:09;10.00;;;2.00;;
22622;SDS011;11478;51.094;7.030;2022-09-17T15:25:01;6.57;;;2.30;;
22622;SDS011;11478;51.094;7.030;2022-09-17T15:27:34;6.18;;;1.98;;
22622;SDS011;11478;51.094;7.030;2022-09-17T15:30:15;6.22;;;1.60;;
22622;SDS011;11478;51.094;7.030;2022-09-17T15:32:54;5.35;;;1.42;;
22622;SDS011;11478;51.094;7.030;2022-09-17T15:38:03;6.05;;;1.45;;
22622;SDS011;11478;51.094;7.030;2022-09-17T15:40:44;5.68;;;1.20;;
22622;SDS011;11478;51.094;7.030;2022-09-17T15:45:45;6.97;;;1.30;;
22622;SDS011;11478;51.094;7.030;2022-09-17T15:50:57;5.13;;;1.20;;
22622;SDS011;11478;51.094;7.030;2022-09-17T15:53:25;5.25;;;1.23;;
22622;SDS011;11478;51.094;7.030;2022-09-17T15:56:03;7.18;;;1.38;;
22622;SDS011;11478;51.094;7.030;2022-09-17T16:08:56;8.45;;;1.65;;
22622;SDS011;11478;51.094;7.030;2022-09-17T16:11:31;8.45;;;1.77;;
22622;SDS011;11478;51.094;7.030;2022-09-17T16:13:58;9.38;;;1.85;;
22622;SDS011;11478;51.094;7.030;2022-09-17T16:19:12;12.23;;;1.63;;
22622;SDS011;11478;51.094;7.030;2022-09-17T16:21:45;7.00;;;1.70;;
22622;SDS011;11478;51.094;7.030;2022-09-17T16:24:10;9.35;;;1.50;;
22622;SDS011;11478;51.094;7.030;2022-09-17T16:26:39;5.63;;;1.50;;
22622;SDS011;11478;51.094;7.030;2022-09-17T16:29:06;10.00;;;2.25;;
22622;SDS011;11478;51.094;7.030;2022-09-17T16:31:37;11.23;;;1.92;;
22622;SDS011;11478;51.094;7.030;2022-09-17T16:34:03;7.03;;;1.80;;
22622;SDS011;11478;51.094;7.030;2022-09-17T16:36:29;7.13;;;1.98;;
22622;SDS011;11478;51.094;7.030;2022-09-17T16:38:55;6.95;;;1.63;;
22622;SDS011;11478;51.094;7.030;2022-09-17T16:41:21;6.60;;;1.67;;
22622;SDS011;11478;51.094;7.030;2022-09-17T16:43:46;8.57;;;1.80;;
22622;SDS011;11478;51.094;7.030;2022-09-17T16:46:12;6.68;;;1.50;;
22622;SDS011;11478;51.094;7.030;2022-09-17T16:48:38;8.38;;;1.40;;
22622;SDS011;11478;51.094;7.030;2022-09-17T16:51:11;5.72;;;1.42;;
22622;SDS011;11478;51.094;7.030;2022-09-17T16:53:38;8.65;;;2.17;;
22622;SDS011;11478;51.094;7.030;2022-09-17T16:56:05;7.63;;;1.38;;
22622;SDS011;11478;51.094;7.030;2022-09-17T16:58:32;10.10;;;1.85;;
22622;SDS011;11478;51.094;7.030;2022-09-17T17:01:11;7.90;;;1.75;;
22622;SDS011;11478;51.094;7.030;2022-09-17T17:03:38;7.35;;;1.63;;
22622;SDS011;11478;51.094;7.030;2022-09-17T17:06:16;10.80;;;4.18;;
22622;SDS011;11478;51.094;7.030;2022-09-17T17:08:43;47.00;;;25.02;;
22622;SDS011;11478;51.094;7.030;2022-09-17T17:11:15;36.92;;;19.73;;
22622;SDS011;11478;51.094;7.030;2022-09-17T17:13:42;58.47;;;33.55;;
22622;SDS011;11478;51.094;7.030;2022-09-17T17:16:10;51.28;;;32.00;;
22622;SDS011;11478;51.094;7.030;2022-09-17T17:18:38;26.38;;;11.95;;
22622;SDS011;11478;51.094;7.030;2022-09-17T17:21:22;14.60;;;7.15;;
22622;SDS011;11478;51.094;7.030;2022-09-17T17:23:48;14.48;;;7.57;;
22622;SDS011;11478;51.094;7.030;2022-09-17T17:28:45;7.28;;;3.72;;
22622;SDS011;11478;51.094;7.030;2022-09-17T17:31:13;6.45;;;3.05;;
22622;SDS011;11478;51.094;7.030;2022-09-17T17:33:39;10.30;;;2.60;;
22622;SDS011;11478;51.094;7.030;2022-09-17T17:36:09;8.25;;;2.95;;
22622;SDS011;11478;51.094;7.030;2022-09-17T17:38:36;7.72;;;2.63;;
22622;SDS011;11478;51.094;7.030;2022-09-17T17:41:13;4.50;;;2.00;;
22622;SDS011;11478;51.094;7.030;2022-09-17T17:43:39;9.73;;;2.65;;
22622;SDS011;11478;51.094;7.030;2022-09-17T17:46:11;8.15;;;2.42;;
22622;SDS011;11478;51.094;7.030;2022-09-17T17:48:37;9.00;;;2.13;;
22622;SDS011;11478;51.094;7.030;2022-09-17T17:51:18;8.73;;;1.77;;
22622;SDS011;11478;51.094;7.030;2022-09-17T17:53:44;7.97;;;2.47;;
22622;SDS011;11478;51.094;7.030;2022-09-17T17:56:11;6.70;;;2.08;;
22622;SDS011;11478;51.094;7.030;2022-09-17T17:58:37;9.93;;;2.92;;
22622;SDS011;11478;51.094;7.030;2022-09-17T18:01:14;9.23;;;3.28;;
22622;SDS011;11478;51.094;7.030;2022-09-17T18:03:42;11.43;;;3.47;;
22622;SDS011;11478;51.094;7.030;2022-09-17T18:06:12;9.60;;;3.08;;
22622;SDS011;11478;51.094;7.030;2022-09-17T18:08:39;5.78;;;2.50;;
22622;SDS011;11478;51.094;7.030;2022-09-17T18:11:07;6.63;;;2.40;;
22622;SDS011;11478;51.094;7.030;2022-09-17T18:13:34;8.95;;;2.72;;
22622;SDS011;11478;51.094;7.030;2022-09-17T18:16:03;6.53;;;2.33;;
22622;SDS011;11478;51.094;7.030;2022-09-17T18:18:32;10.07;;;2.65;;
22622;SDS011;11478;51.094;7.030;2022-09-17T18:21:00;8.20;;;2.67;;
22622;SDS011;11478;51.094;7.030;2022-09-17T18:23:28;5.45;;;2.42;;
22622;SDS011;11478;51.094;7.030;2022-09-17T18:28:43;9.60;;;3.67;;
22622;SDS011;11478;51.094;7.030;2022-09-17T18:34:09;9.88;;;3.35;;
22622;SDS011;11478;51.094;7.030;2022-09-17T18:36:38;7.65;;;3.10;;
22622;SDS011;11478;51.094;7.030;2022-09-17T18:39:05;5.80;;;2.10;;
22622;SDS011;11478;51.094;7.030;2022-09-17T18:41:34;5.47;;;2.00;;
22622;SDS011;11478;51.094;7.030;2022-09-17T18:44:03;4.13;;;1.80;;
22622;SDS011;11478;51.094;7.030;2022-09-17T18:46:33;8.38;;;1.73;;
22622;SDS011;11478;51.094;7.030;2022-09-17T18:48:59;7.75;;;1.60;;
22622;SDS011;11478;51.094;7.030;2022-09-17T18:51:27;7.10;;;1.80;;
22622;SDS011;11478;51.094;7.030;2022-09-17T18:53:53;8.40;;;1.60;;
22622;SDS011;11478;51.094;7.030;2022-09-17T18:56:24;6.43;;;1.60;;
22622;SDS011;11478;51.094;7.030;2022-09-17T18:58:53;6.38;;;1.90;;
22622;SDS011;11478;51.094;7.030;2022-09-17T19:01:21;8.80;;;1.85;;
22622;SDS011;11478;51.094;7.030;2022-09-17T19:03:48;4.45;;;1.60;;
22622;SDS011;11478;51.094;7.030;2022-09-17T19:06:15;5.63;;;1.42;;
22622;SDS011;11478;51.094;7.030;2022-09-17T19:08:42;5.82;;;1.45;;
22622;SDS011;11478;51.094;7.030;2022-09-17T19:11:12;5.95;;;1.85;;
22622;SDS011;11478;51.094;7.030;2022-09-17T19:13:39;9.65;;;1.90;;
22622;SDS011;11478;51.094;7.030;2022-09-17T19:16:12;6.60;;;1.70;;
22622;SDS011;11478;51.094;7.030;2022-09-17T19:18:39;7.90;;;1.90;;
22622;SDS011;11478;51.094;7.030;2022-09-17T19:21:12;6.45;;;1.83;;
22622;SDS011;11478;51.094;7.030;2022-09-17T19:23:40;9.63;;;1.75;;
22622;SDS011;11478;51.094;7.030;2022-09-17T19:26:08;4.90;;;1.63;;
22622;SDS011;11478;51.094;7.030;2022-09-17T19:28:35;6.30;;;1.83;;
22622;SDS011;11478;51.094;7.030;2022-09-17T19:31:06;8.70;;;2.70;;
22622;SDS011;11478;51.094;7.030;2022-09-17T19:33:33;8.57;;;3.90;;